Main page


Airports :

Scatsta, Shetland, Scotland

Scatsta Airport

latitude: 60-26N, longitude: 001-18W, elevation: 22 m

Current weather observation

The report was made 14 minutes ago, at 17:20 UTC
Wind 10 kt from the West
Temperature 5°C
Humidity 87%
Pressure 1025 hPa
Visibility 10 km or more

METAR: EGPM 201720Z AUTO 27010KT 9999 FEW026/// BKN036/// 05/03 Q1025

Time: 17:34 (17:34 UTC)


The report was made 3 hours and 34 minutes ago, at 14:00 UTC
Forecast valid from 20 at 15 UTC to 20 at 20 UTC
Wind 14 kt from the West
Visibility 10 km or more
Few clouds at a height of 1200 ft
Scattered clouds at a height of 2000 ft
Probability 40% :
from 20 at 15 UTC to 20 at 20 UTC
Visibility: 6000 m
Broken clouds at a height of 1200 ft
rain showers

TAF: EGPM 201400Z 2015/2020 28014KT 9999 FEW012 SCT020 PROB40 TEMPO 2015/2020 6000 SHRA BKN012

Weather observations and forecasts of more than 4000 airports (METAR and TAF reports).

The available stations are represented by yellow and red dots on the map.

Hover mouse over dot to see the name of the station.

Then click to see weather observations and forecasts.

To change the map : click on the green buttons with a black cross to zoom in, on the green button with a dash to zoom out, or on the green arrows for adjacent maps.